createdAt,value
2022-11-09T00:01:29.005Z,100306.13
2022-11-09T00:04:01.215Z,100300.50
2022-11-09T00:06:34.283Z,100304.03
2022-11-09T00:09:07.769Z,100300.69
2022-11-09T00:11:36.754Z,100290.16
2022-11-09T00:14:06.544Z,100293.97
2022-11-09T00:16:35.801Z,100294.78
2022-11-09T00:19:02.747Z,100287.25
2022-11-09T00:21:29.579Z,100290.59
2022-11-09T00:24:01.157Z,100291.22
2022-11-09T00:26:31.487Z,100291.84
2022-11-09T00:29:00.681Z,100288.06
2022-11-09T00:31:27.682Z,100282.19
2022-11-09T00:33:56.780Z,100273.78
2022-11-09T00:36:25.835Z,100282.19
2022-11-09T00:38:58.555Z,100268.13
2022-11-09T00:41:31.162Z,100268.31
2022-11-09T00:44:02.772Z,100267.06
2022-11-09T00:46:29.986Z,100271.25
2022-11-09T00:48:57.009Z,100268.75
2022-11-09T00:51:25.067Z,100267.69
2022-11-09T00:53:54.731Z,100275.66
2022-11-09T00:56:24.592Z,100268.94
2022-11-09T00:58:55.646Z,100273.78
2022-11-09T01:01:23.325Z,100266.22
2022-11-09T01:03:50.381Z,100272.72
2022-11-09T01:06:24.807Z,100262.88
2022-11-09T01:08:52.456Z,100262.44
2022-11-09T01:11:24.481Z,100255.31
2022-11-09T01:13:52.195Z,100264.13
2022-11-09T01:16:22.723Z,100260.56
2022-11-09T01:18:55.929Z,100260.78
2022-11-09T01:21:23.126Z,100259.50
2022-11-09T01:23:50.122Z,100250.91
2022-11-09T01:26:17.008Z,100251.75
2022-11-09T01:28:46.852Z,100247.53
2022-11-09T01:31:24.077Z,100235.34
2022-11-09T01:33:51.586Z,100234.09
2022-11-09T01:36:23.957Z,100228.84
2022-11-09T01:38:51.750Z,100241.84
2022-11-09T01:41:27.835Z,100229.47
2022-11-09T01:44:18.393Z,100237.44
2022-11-09T01:47:00.921Z,100237.88
2022-11-09T01:49:53.220Z,100237.25
2022-11-09T01:52:32.250Z,100237.66
2022-11-09T01:55:06.345Z,100230.94
2022-11-09T01:58:05.431Z,100231.38
2022-11-09T02:00:37.354Z,100235.75
2022-11-09T02:03:22.531Z,100232.63
2022-11-09T02:05:50.379Z,100234.31
2022-11-09T02:08:20.367Z,100232.63
2022-11-09T02:11:04.792Z,100221.28
2022-11-09T02:13:33.551Z,100224.22
2022-11-09T02:16:01.228Z,100219.59
2022-11-09T02:18:31.487Z,100214.56
2022-11-09T02:20:59.056Z,100213.28
2022-11-09T02:23:26.920Z,100207.84
2022-11-09T02:26:05.467Z,100214.97
2022-11-09T02:28:32.598Z,100210.78
2022-11-09T02:31:00.252Z,100204.91
2022-11-09T02:33:29.259Z,100211.19
2022-11-09T02:35:56.103Z,100216.22
2022-11-09T02:38:23.040Z,100218.31
2022-11-09T02:40:53.177Z,100213.72
2022-11-09T02:43:25.139Z,100210.56
2022-11-09T02:45:51.985Z,100207.63
2022-11-09T02:48:18.887Z,100201.53
2022-11-09T02:50:48.837Z,100199.22
2022-11-09T02:53:18.944Z,100205.69
2022-11-09T02:55:46.050Z,100207.34
2022-11-09T02:58:13.079Z,100218.72
2022-11-09T03:00:39.871Z,100217.88
2022-11-09T03:03:09.230Z,100217.44
2022-11-09T03:05:36.106Z,100218.50
2022-11-09T03:08:05.190Z,100215.56
2022-11-09T03:10:32.050Z,100207.56
2022-11-09T03:12:58.983Z,100215.97
2022-11-09T03:15:25.868Z,100223.97
2022-11-09T03:17:52.810Z,100208.19
2022-11-09T03:20:19.712Z,100213.88
2022-11-09T03:22:46.584Z,100211.13
2022-11-09T03:25:15.722Z,100211.78
2022-11-09T03:27:44.737Z,100217.88
2022-11-09T03:30:14.721Z,100214.69
2022-11-09T03:32:48.063Z,100233.22
2022-11-09T03:35:17.267Z,100225.88
2022-11-09T03:37:46.303Z,100236.75
2022-11-09T03:40:15.448Z,100235.28
2022-11-09T03:42:47.852Z,100221.25
2022-11-09T03:45:16.517Z,100226.03
2022-11-09T03:47:45.074Z,100227.53
2022-11-09T03:50:16.396Z,100227.53
2022-11-09T03:52:47.399Z,100228.53
2022-11-09T03:55:15.155Z,100227.69
2022-11-09T03:57:42.018Z,100235.91
2022-11-09T04:00:10.036Z,100227.50
2022-11-09T04:02:36.895Z,100225.41
2022-11-09T04:05:09.434Z,100226.28
2022-11-09T04:07:36.457Z,100230.06
2022-11-09T04:10:05.504Z,100222.03
2022-11-09T04:12:32.466Z,100217.75
2022-11-09T04:14:59.446Z,100212.75
2022-11-09T04:17:26.343Z,100213.16
2022-11-09T04:19:55.365Z,100217.59
2022-11-09T04:22:22.160Z,100215.06
2022-11-09T04:24:49.028Z,100217.88
2022-11-09T04:27:18.381Z,100218.47
2022-11-09T04:29:45.231Z,100221.00
2022-11-09T04:32:12.120Z,100214.69
2022-11-09T04:34:41.293Z,100206.06
2022-11-09T04:37:11.234Z,100215.56
2022-11-09T04:39:38.260Z,100210.75
2022-11-09T04:42:07.736Z,100218.28
2022-11-09T04:44:34.642Z,100217.88
2022-11-09T04:47:06.150Z,100221.03
2022-11-09T04:49:38.506Z,100221.66
2022-11-09T04:52:05.362Z,100208.00
2022-11-09T04:54:36.751Z,100209.47
2022-11-09T04:57:08.259Z,100208.19
2022-11-09T04:59:35.097Z,100218.72
2022-11-09T05:02:01.908Z,100212.41
2022-11-09T05:04:28.766Z,100208.84
2022-11-09T05:06:55.761Z,100222.53
2022-11-09T05:09:22.720Z,100215.78
2022-11-09T05:11:52.278Z,100221.28
2022-11-09T05:14:21.422Z,100223.38
2022-11-09T05:16:48.300Z,100225.47
2022-11-09T05:19:18.189Z,100229.25
2022-11-09T05:21:49.718Z,100238.06
2022-11-09T05:24:16.598Z,100235.50
2022-11-09T05:26:45.958Z,100243.97
2022-11-09T05:29:13.874Z,100227.16
2022-11-09T05:31:43.683Z,100227.56
2022-11-09T05:34:14.176Z,100223.78
2022-11-09T05:36:41.230Z,100227.56
2022-11-09T05:39:11.099Z,100224.19
2022-11-09T05:41:37.980Z,100229.84
2022-11-09T05:44:04.965Z,100228.59
2022-11-09T05:46:33.409Z,100223.34
2022-11-09T05:49:05.676Z,100227.97
2022-11-09T05:51:32.599Z,100225.03
2022-11-09T05:53:59.440Z,100232.59
2022-11-09T05:56:28.778Z,100236.56
2022-11-09T05:58:55.620Z,100235.53
2022-11-09T06:01:24.789Z,100236.38
2022-11-09T06:03:54.719Z,100242.06
2022-11-09T06:06:21.609Z,100228.41
2022-11-09T06:08:50.729Z,100222.75
2022-11-09T06:11:23.526Z,100230.31
2022-11-09T06:13:52.135Z,100222.97
2022-11-09T06:16:24.315Z,100212.88
2022-11-09T06:18:51.386Z,100218.75
2022-11-09T06:21:18.570Z,100229.06
2022-11-09T06:23:48.247Z,100219.41
2022-11-09T06:26:15.482Z,100231.38
2022-11-09T06:28:42.457Z,100236.81
2022-11-09T06:31:18.187Z,100237.88
2022-11-09T06:33:45.212Z,100246.06
2022-11-09T06:36:15.074Z,100251.09
2022-11-09T06:38:44.333Z,100249.41
2022-11-09T06:41:11.243Z,100255.69
2022-11-09T06:43:38.144Z,100259.28
2022-11-09T06:46:05.703Z,100263.28
2022-11-09T06:48:34.873Z,100258.47
2022-11-09T06:51:05.793Z,100270.84
2022-11-09T06:53:34.981Z,100273.38
2022-11-09T06:56:08.323Z,100273.78
2022-11-09T06:58:35.758Z,100273.38
2022-11-09T07:01:13.888Z,100275.47
2022-11-09T07:03:41.132Z,100285.56
2022-11-09T07:06:12.090Z,100280.09
2022-11-09T07:08:42.042Z,100280.72
2022-11-09T07:11:16.897Z,100281.34
2022-11-09T07:13:52.253Z,100286.59
2022-11-09T07:16:21.861Z,100291.84
2022-11-09T07:18:48.784Z,100297.31
2022-11-09T07:21:15.833Z,100293.13
2022-11-09T07:23:43.500Z,100296.06
2022-11-09T07:26:10.622Z,100304.25
2022-11-09T07:28:37.552Z,100304.69
2022-11-09T07:31:04.714Z,100306.56
2022-11-09T07:33:33.367Z,100299.84
2022-11-09T07:36:05.305Z,100310.34
2022-11-09T07:38:35.145Z,100309.91
2022-11-09T07:41:02.447Z,100312.03
2022-11-09T07:43:30.059Z,100319.16
2022-11-09T07:46:00.085Z,100316.22
2022-11-09T07:48:29.473Z,100318.13
2022-11-09T07:51:00.224Z,100314.97
2022-11-09T07:53:27.240Z,100322.94
2022-11-09T07:56:02.462Z,100312.03
2022-11-09T07:58:36.060Z,100323.78
2022-11-09T08:01:08.851Z,100332.22
2022-11-09T08:03:38.321Z,100327.38
2022-11-09T08:06:07.680Z,100315.19
2022-11-09T08:08:40.533Z,100326.53
2022-11-09T08:11:07.512Z,100329.25
2022-11-09T08:13:34.459Z,100325.28
2022-11-09T08:16:05.501Z,100325.25
2022-11-09T08:18:34.474Z,100324.00
2022-11-09T08:21:05.349Z,100328.38
2022-11-09T08:23:32.563Z,100328.56
2022-11-09T08:26:04.865Z,100320.38
2022-11-09T08:28:32.957Z,100332.13
2022-11-09T08:31:05.633Z,100321.91
2022-11-09T08:33:39.670Z,100320.81
2022-11-09T08:36:15.988Z,100317.13
2022-11-09T08:38:44.547Z,100306.78
2022-11-09T08:41:13.753Z,100306.16
2022-11-09T08:43:41.428Z,100323.25
2022-11-09T08:46:08.789Z,100326.47
2022-11-09T08:48:36.152Z,100331.88
2022-11-09T08:51:05.749Z,100345.75
2022-11-09T08:53:37.297Z,100345.94
2022-11-09T08:56:10.995Z,100346.00
2022-11-09T08:58:38.070Z,100340.69
2022-11-09T09:01:16.758Z,100348.41
2022-11-09T09:03:44.239Z,100352.25
2022-11-09T09:06:11.295Z,100354.00
2022-11-09T09:08:38.332Z,100354.25
2022-11-09T09:11:08.431Z,100344.00
2022-11-09T09:13:43.100Z,100347.34
2022-11-09T09:16:17.885Z,100348.41
2022-11-09T09:18:44.855Z,100347.75
2022-11-09T09:21:16.752Z,100350.72
2022-11-09T09:23:43.685Z,100353.44
2022-11-09T09:26:10.622Z,100350.94
2022-11-09T09:28:38.119Z,100356.81
2022-11-09T09:31:05.117Z,100366.28
2022-11-09T09:33:34.643Z,100368.38
2022-11-09T09:36:04.254Z,100370.84
2022-11-09T09:38:31.428Z,100373.34
2022-11-09T09:41:04.621Z,100380.03
2022-11-09T09:43:43.020Z,100373.47
2022-11-09T09:46:40.656Z,100368.38
2022-11-09T09:49:20.655Z,100362.59
2022-11-09T09:52:06.782Z,100376.66
2022-11-09T09:54:42.464Z,100383.75
2022-11-09T09:57:20.966Z,100380.94
2022-11-09T09:59:57.509Z,100381.94
2022-11-09T10:02:28.020Z,100382.25
2022-11-09T10:05:00.277Z,100380.19
2022-11-09T10:07:32.783Z,100384.88
2022-11-09T10:10:24.257Z,100393.50
2022-11-09T10:13:25.149Z,100381.06
2022-11-09T10:16:10.168Z,100385.00
2022-11-09T10:19:07.924Z,100376.63
2022-11-09T10:22:20.666Z,100385.38
2022-11-09T10:27:58.256Z,100384.34
2022-11-09T10:30:29.075Z,100370.59
2022-11-09T10:33:11.474Z,100371.41
2022-11-09T10:36:08.624Z,100371.38
2022-11-09T10:38:49.482Z,100362.78
2022-11-09T10:41:33.951Z,100363.13
2022-11-09T10:44:05.449Z,100365.56
2022-11-09T10:47:12.502Z,100362.41
2022-11-09T10:49:41.066Z,100346.22
2022-11-09T10:52:43.002Z,100350.22
2022-11-09T10:55:23.091Z,100359.25
2022-11-09T10:58:35.373Z,100357.88
2022-11-09T11:01:26.845Z,100357.66
2022-11-09T11:03:57.408Z,100350.13
2022-11-09T11:06:24.183Z,100353.84
2022-11-09T11:09:11.047Z,100352.75
2022-11-09T11:11:39.818Z,100351.59
2022-11-09T11:14:23.314Z,100366.97
2022-11-09T11:16:53.131Z,100351.66
2022-11-09T11:19:43.017Z,100359.94
2022-11-09T11:22:23.223Z,100347.22
2022-11-09T11:25:01.762Z,100350.31
2022-11-09T11:27:48.988Z,100341.31
2022-11-09T11:30:37.545Z,100347.72
2022-11-09T11:33:15.882Z,100348.84
2022-11-09T11:35:48.942Z,100349.22
2022-11-09T11:38:45.145Z,100354.97
2022-11-09T11:41:45.999Z,100353.41
2022-11-09T11:44:54.864Z,100346.81
2022-11-09T11:47:51.518Z,100346.88
2022-11-09T11:50:49.700Z,100352.56
2022-11-09T11:53:22.435Z,100346.38
2022-11-09T11:56:25.948Z,100351.09
2022-11-09T11:59:24.837Z,100348.56
2022-11-09T12:02:03.501Z,100347.94
2022-11-09T12:05:07.531Z,100350.47
2022-11-09T12:07:56.913Z,100361.34
2022-11-09T12:10:50.966Z,100344.19
2022-11-09T12:14:01.116Z,100353.75
2022-11-09T12:16:36.934Z,100350.84
2022-11-09T12:20:01.004Z,100342.09
2022-11-09T12:22:42.047Z,100352.44
2022-11-09T12:25:19.759Z,100348.91
2022-11-09T12:28:17.196Z,100349.97
2022-11-09T12:31:43.957Z,100339.41
2022-11-09T12:34:59.358Z,100349.78
2022-11-09T12:37:37.682Z,100345.50
2022-11-09T12:40:26.593Z,100339.91
2022-11-09T12:43:05.910Z,100356.25
2022-11-09T12:45:36.344Z,100343.56
2022-11-09T12:48:16.783Z,100339.50
2022-11-09T12:50:44.381Z,100346.94
2022-11-09T12:53:14.164Z,100345.81
2022-11-09T12:56:18.857Z,100344.66
2022-11-09T12:58:46.207Z,100339.19
2022-11-09T13:01:34.643Z,100340.47
2022-11-09T13:04:06.398Z,100338.97
2022-11-09T13:06:34.036Z,100349.28
2022-11-09T13:09:16.214Z,100354.44
2022-11-09T13:11:50.096Z,100345.94
2022-11-09T13:14:23.211Z,100349.50
2022-11-09T13:16:55.907Z,100347.94
2022-11-09T13:19:51.210Z,100356.75
2022-11-09T13:22:20.717Z,100359.94
2022-11-09T13:25:28.855Z,100352.47
2022-11-09T13:27:57.780Z,100354.78
2022-11-09T13:30:30.308Z,100347.19
2022-11-09T13:33:06.431Z,100359.63
2022-11-09T13:35:42.742Z,100356.06
2022-11-09T13:38:23.421Z,100358.75
2022-11-09T13:41:04.369Z,100354.38
2022-11-09T13:43:37.325Z,100363.97
2022-11-09T13:46:27.736Z,100365.03
2022-11-09T13:48:55.305Z,100363.09
2022-11-09T13:51:48.326Z,100366.00
2022-11-09T13:54:35.245Z,100372.13
2022-11-09T13:57:06.550Z,100375.56
2022-11-09T13:59:47.076Z,100376.31
2022-11-09T14:02:18.526Z,100386.97
2022-11-09T14:04:45.847Z,100390.81
2022-11-09T14:07:33.006Z,100395.44
2022-11-09T14:10:34.885Z,100390.53
2022-11-09T14:14:03.000Z,100391.44
2022-11-09T14:16:39.146Z,100399.66
2022-11-09T14:19:30.772Z,100395.06
2022-11-09T14:22:02.373Z,100400.66
2022-11-09T14:24:35.423Z,100403.09
2022-11-09T14:27:23.498Z,100401.03
2022-11-09T14:30:00.967Z,100396.25
2022-11-09T14:32:35.813Z,100401.16
2022-11-09T14:35:23.502Z,100401.69
2022-11-09T14:37:52.930Z,100407.00
2022-11-09T14:40:33.123Z,100411.13
2022-11-09T14:43:30.539Z,100413.34
2022-11-09T14:46:16.570Z,100410.03
2022-11-09T14:49:02.245Z,100416.25
2022-11-09T14:51:35.597Z,100428.47
2022-11-09T14:54:09.662Z,100420.56
2022-11-09T14:56:41.719Z,100426.22
2022-11-09T14:59:13.750Z,100422.59
2022-11-09T15:01:40.978Z,100419.00
2022-11-09T15:04:22.780Z,100424.88
2022-11-09T15:07:03.972Z,100422.22
2022-11-09T15:09:43.868Z,100422.41
2022-11-09T15:12:19.294Z,100429.50
2022-11-09T15:15:08.882Z,100425.56
2022-11-09T15:17:38.595Z,100421.78
2022-11-09T15:20:08.579Z,100414.75
2022-11-09T15:23:06.204Z,100412.81
2022-11-09T15:25:53.779Z,100413.06
2022-11-09T15:28:30.644Z,100416.25
2022-11-09T15:31:00.426Z,100417.91
2022-11-09T15:33:29.951Z,100411.41
2022-11-09T15:36:07.310Z,100418.91
2022-11-09T15:38:44.417Z,100422.66
2022-11-09T15:41:24.484Z,100416.16
2022-11-09T15:43:51.648Z,100424.81
2022-11-09T15:46:28.832Z,100427.81
2022-11-09T15:49:06.091Z,100427.00
2022-11-09T15:51:35.591Z,100429.75
2022-11-09T15:54:02.837Z,100427.19
2022-11-09T15:56:29.798Z,100429.72
2022-11-09T15:59:01.444Z,100438.13
2022-11-09T16:01:32.949Z,100429.69
2022-11-09T16:04:03.112Z,100441.31
2022-11-09T16:06:32.358Z,100441.75
2022-11-09T16:08:59.405Z,100437.31
2022-11-09T16:11:26.429Z,100445.75
2022-11-09T16:13:55.970Z,100446.19
2022-11-09T16:16:25.530Z,100448.69
2022-11-09T16:18:52.520Z,100444.91
2022-11-09T16:21:22.006Z,100438.59
2022-11-09T16:23:58.524Z,100433.56
2022-11-09T16:26:26.170Z,100431.44
2022-11-09T16:28:55.635Z,100434.81
2022-11-09T16:31:48.236Z,100427.19
2022-11-09T16:34:12.024Z,100440.28
2022-11-09T16:36:47.385Z,100444.44
2022-11-09T16:39:18.752Z,100453.66
2022-11-09T16:41:51.800Z,100443.53
2022-11-09T16:44:23.546Z,100448.56
2022-11-09T16:46:53.019Z,100456.38
2022-11-09T16:49:20.113Z,100453.63
2022-11-09T16:51:47.159Z,100453.22
2022-11-09T16:54:14.096Z,100459.91
2022-11-09T16:56:43.683Z,100458.06
2022-11-09T16:59:13.546Z,100459.53
2022-11-09T17:01:42.572Z,100461.19
2022-11-09T17:04:09.664Z,100469.94
2022-11-09T17:06:39.093Z,100465.78
2022-11-09T17:09:08.574Z,100472.94
2022-11-09T17:11:38.006Z,100474.38
2022-11-09T17:14:07.560Z,100475.22
2022-11-09T17:16:35.125Z,100468.91
2022-11-09T17:19:02.310Z,100473.25
2022-11-09T17:21:29.931Z,100478.28
2022-11-09T17:23:59.971Z,100473.75
2022-11-09T17:26:27.351Z,100473.28
2022-11-09T17:28:54.283Z,100483.34
2022-11-09T17:31:23.872Z,100482.03
2022-11-09T17:33:50.772Z,100484.13
2022-11-09T17:36:41.595Z,100480.31
2022-11-09T17:39:07.669Z,100484.22
2022-11-09T17:41:42.263Z,100475.56
2022-11-09T17:44:11.874Z,100482.94
2022-11-09T17:46:38.785Z,100496.72
2022-11-09T17:49:09.814Z,100499.13
2022-11-09T17:51:37.815Z,100505.13
2022-11-09T17:54:04.915Z,100499.59
2022-11-09T17:56:33.726Z,100511.53
2022-11-09T17:59:00.851Z,100515.91
2022-11-09T18:01:30.595Z,100512.38
2022-11-09T18:04:04.236Z,100519.69
2022-11-09T18:06:33.402Z,100523.34
2022-11-09T18:09:34.567Z,100520.31
2022-11-09T18:11:48.122Z,100522.28
2022-11-09T18:14:17.629Z,100529.03
2022-11-09T18:16:47.059Z,100530.25
2022-11-09T18:19:14.120Z,100531.59
2022-11-09T18:21:45.639Z,100524.94
2022-11-09T18:24:13.812Z,100534.44
2022-11-09T18:26:40.780Z,100543.16
2022-11-09T18:29:07.708Z,100542.59
2022-11-09T18:31:34.598Z,100547.13
2022-11-09T18:34:01.497Z,100537.22
2022-11-09T18:36:30.575Z,100555.22
2022-11-09T18:38:57.650Z,100547.25
2022-11-09T18:41:25.768Z,100544.84
2022-11-09T18:43:55.157Z,100551.97
2022-11-09T18:46:30.674Z,100551.38
2022-11-09T18:48:57.643Z,100550.38
2022-11-09T18:51:25.002Z,100562.44
2022-11-09T18:53:52.310Z,100553.53
2022-11-09T18:56:24.882Z,100561.31
2022-11-09T18:58:54.913Z,100562.38
2022-11-09T19:01:24.833Z,100570.19
2022-11-09T19:03:57.805Z,100564.19
2022-11-09T19:06:26.894Z,100564.19
2022-11-09T19:09:12.647Z,100585.22
2022-11-09T19:11:42.160Z,100581.16
2022-11-09T19:14:12.332Z,100582.72
2022-11-09T19:16:39.281Z,100581.53
2022-11-09T19:19:06.370Z,100588.03
2022-11-09T19:21:41.426Z,100584.50
2022-11-09T19:24:14.354Z,100586.75
2022-11-09T19:26:43.912Z,100589.97
2022-11-09T19:29:13.523Z,100602.19
2022-11-09T19:31:46.555Z,100592.16
2022-11-09T19:34:20.301Z,100609.78
2022-11-09T19:36:47.956Z,100605.00
2022-11-09T19:39:16.148Z,100610.63
2022-11-09T19:41:43.596Z,100603.44
2022-11-09T19:44:13.138Z,100613.03
2022-11-09T19:46:42.474Z,100619.91
2022-11-09T19:49:09.916Z,100619.31
2022-11-09T19:51:39.706Z,100619.66
2022-11-09T19:54:07.224Z,100618.56
2022-11-09T19:56:37.101Z,100626.53
2022-11-09T19:59:05.555Z,100637.41
2022-11-09T20:01:32.641Z,100631.50
2022-11-09T20:04:09.022Z,100626.69
2022-11-09T20:06:39.677Z,100637.44
2022-11-09T20:09:06.853Z,100641.22
2022-11-09T20:11:52.625Z,100641.13
2022-11-09T20:14:20.551Z,100642.31
2022-11-09T20:16:49.866Z,100648.38
2022-11-09T20:19:20.027Z,100648.09
2022-11-09T20:21:49.621Z,100654.47
2022-11-09T20:24:16.783Z,100661.91
2022-11-09T20:26:44.025Z,100653.69
2022-11-09T20:29:11.377Z,100662.97
2022-11-09T20:31:40.734Z,100665.78
2022-11-09T20:34:09.998Z,100672.25
2022-11-09T20:36:37.229Z,100671.63
2022-11-09T20:39:04.706Z,100683.19
2022-11-09T20:41:36.486Z,100691.22
2022-11-09T20:44:03.603Z,100704.88
2022-11-09T20:46:35.842Z,100701.56
2022-11-09T20:49:04.245Z,100709.06
2022-11-09T20:51:32.161Z,100710.69
2022-11-09T20:54:02.425Z,100719.44
2022-11-09T20:56:35.005Z,100726.81
2022-11-09T20:59:01.873Z,100725.75
2022-11-09T21:01:28.971Z,100738.88
2022-11-09T21:03:55.900Z,100743.88
2022-11-09T21:06:22.911Z,100738.66
2022-11-09T21:08:57.576Z,100741.66
2022-11-09T21:11:35.846Z,100741.63
2022-11-09T21:14:03.493Z,100754.66
2022-11-09T21:16:30.606Z,100757.72
2022-11-09T21:18:57.663Z,100759.84
2022-11-09T21:21:25.441Z,100757.84
2022-11-09T21:24:11.323Z,100764.31
2022-11-09T21:26:57.048Z,100769.47
2022-11-09T21:29:43.242Z,100771.91
2022-11-09T21:32:15.544Z,100776.63
2022-11-09T21:34:45.309Z,100773.56
2022-11-09T21:37:15.083Z,100776.91
2022-11-09T21:39:42.984Z,100783.59
2022-11-09T21:42:12.419Z,100785.50
2022-11-09T21:44:40.010Z,100790.84
2022-11-09T21:47:07.891Z,100790.09
2022-11-09T21:49:37.888Z,100790.56
2022-11-09T21:52:05.158Z,100797.78
2022-11-09T21:54:32.050Z,100796.56
2022-11-09T21:57:02.724Z,100811.53
2022-11-09T21:59:31.909Z,100803.53
2022-11-09T22:01:58.853Z,100804.59
2022-11-09T22:04:27.904Z,100810.13
2022-11-09T22:06:57.964Z,100811.81
2022-11-09T22:09:32.462Z,100812.47
2022-11-09T22:12:26.055Z,100817.81
2022-11-09T22:15:11.642Z,100811.44
2022-11-09T22:17:41.099Z,100823.38
2022-11-09T22:20:28.280Z,100826.00
2022-11-09T22:22:57.656Z,100835.78
2022-11-09T22:25:27.602Z,100829.84
2022-11-09T22:27:56.049Z,100834.19
2022-11-09T22:30:23.000Z,100844.72
2022-11-09T22:32:54.563Z,100836.34
2022-11-09T22:35:23.690Z,100849.22
2022-11-09T22:37:53.053Z,100852.69
2022-11-09T22:40:22.853Z,100852.69
2022-11-09T22:42:58.270Z,100858.44
2022-11-09T22:45:25.241Z,100851.56
2022-11-09T22:47:52.190Z,100863.22
2022-11-09T22:50:19.161Z,100869.63
2022-11-09T22:52:46.066Z,100859.91
2022-11-09T22:55:13.137Z,100862.19
2022-11-09T22:57:42.558Z,100871.69
2022-11-09T23:00:13.601Z,100872.16
2022-11-09T23:02:40.631Z,100875.91
2022-11-09T23:05:10.520Z,100866.22
2022-11-09T23:07:37.430Z,100871.69
2022-11-09T23:10:08.031Z,100876.94
2022-11-09T23:12:35.239Z,100877.22
2022-11-09T23:15:05.270Z,100882.59
2022-11-09T23:17:53.149Z,100883.81
2022-11-09T23:20:25.096Z,100880.91
2022-11-09T23:22:52.214Z,100886.53
2022-11-09T23:25:37.744Z,100886.72
2022-11-09T23:28:07.395Z,100892.44
2022-11-09T23:30:36.878Z,100902.63
2022-11-09T23:33:05.973Z,100903.09
2022-11-09T23:35:32.938Z,100914.47
2022-11-09T23:38:01.152Z,100911.28
2022-11-09T23:40:29.591Z,100920.88
2022-11-09T23:43:03.023Z,100923.97
2022-11-09T23:45:32.824Z,100922.16
2022-11-09T23:48:00.069Z,100931.31
2022-11-09T23:50:27.558Z,100930.44
2022-11-09T23:52:59.446Z,100935.16
2022-11-09T23:55:30.527Z,100939.47
2022-11-09T23:58:00.891Z,100946.25
